createdAt,value
2024-03-16T00:03:01.841Z,0.17
2024-03-16T00:08:06.610Z,0.33
2024-03-16T00:13:10.510Z,0.30
2024-03-16T00:18:14.508Z,0.30
2024-03-16T00:23:21.084Z,0.20
2024-03-16T00:28:25.331Z,0.23
2024-03-16T00:33:29.331Z,0.30
2024-03-16T00:38:33.812Z,0.40
2024-03-16T00:43:38.001Z,0.30
2024-03-16T00:48:41.865Z,0.10
2024-03-16T00:53:46.853Z,0.20
2024-03-16T00:58:50.904Z,0.20
2024-03-16T01:03:54.831Z,0.30
2024-03-16T01:08:58.613Z,0.20
2024-03-16T01:14:02.493Z,0.10
2024-03-16T01:19:06.442Z,0.10
2024-03-16T01:24:10.303Z,0.10
2024-03-16T01:29:17.522Z,0.20
2024-03-16T01:34:21.933Z,0.20
2024-03-16T01:39:25.888Z,0.30
2024-03-16T01:44:31.212Z,0.10
2024-03-16T01:49:35.038Z,0.20
2024-03-16T01:54:40.110Z,0.10
2024-03-16T01:59:44.156Z,0.20
2024-03-16T02:04:48.015Z,0.10
2024-03-16T02:09:51.987Z,0.13
2024-03-16T02:14:56.709Z,0.20
2024-03-16T02:20:00.841Z,0.10
2024-03-16T02:25:05.143Z,0.10
2024-03-16T02:30:11.341Z,0.20
2024-03-16T02:35:15.747Z,0.07
2024-03-16T02:40:19.600Z,0.20
2024-03-16T02:45:23.367Z,0.20
2024-03-16T02:50:27.226Z,0.20
2024-03-16T02:55:31.086Z,0.20
2024-03-16T03:00:34.956Z,0.10
2024-03-16T03:05:38.845Z,0.20
2024-03-16T03:10:43.061Z,0.30
2024-03-16T03:15:50.388Z,0.20
2024-03-16T03:20:54.435Z,0.30
2024-03-16T03:25:58.270Z,0.20
2024-03-16T03:31:02.394Z,0.23
2024-03-16T03:36:06.873Z,0.30
2024-03-16T03:41:10.762Z,0.40
2024-03-16T03:46:30.068Z,0.40
2024-03-16T03:51:34.012Z,0.40
2024-03-16T03:56:37.881Z,0.50
2024-03-16T04:01:41.739Z,0.30
2024-03-16T04:06:47.781Z,0.33
2024-03-16T04:11:51.995Z,0.30
2024-03-16T04:16:56.093Z,0.40
2024-03-16T04:22:00.138Z,0.40
2024-03-16T04:27:04.553Z,0.50
2024-03-16T04:32:09.114Z,0.43
2024-03-16T04:37:13.086Z,0.50
2024-03-16T04:42:16.887Z,0.50
2024-03-16T04:47:20.691Z,0.30
2024-03-16T04:52:24.441Z,0.50
2024-03-16T04:57:28.768Z,0.30
2024-03-16T05:02:32.867Z,0.30
2024-03-16T05:07:37.192Z,0.30
2024-03-16T05:12:41.006Z,0.40
2024-03-16T05:17:44.866Z,0.40
2024-03-16T05:22:52.477Z,0.40
2024-03-16T05:28:00.499Z,0.60
2024-03-16T05:33:05.421Z,0.70
2024-03-16T05:38:09.540Z,0.67
2024-03-16T05:43:13.550Z,0.80
2024-03-16T05:48:19.141Z,0.50
2024-03-16T05:53:23.285Z,0.60
2024-03-16T05:58:27.223Z,0.63
2024-03-16T06:03:31.855Z,0.60
2024-03-16T06:08:37.863Z,0.70
2024-03-16T06:13:41.937Z,1.00
2024-03-16T06:18:48.725Z,0.90
2024-03-16T06:23:53.062Z,0.60
2024-03-16T06:29:06.188Z,0.80
2024-03-16T06:34:10.458Z,0.90
2024-03-16T06:39:14.367Z,0.73
2024-03-16T06:44:18.610Z,0.73
2024-03-16T06:49:26.203Z,0.87
2024-03-16T06:54:30.499Z,0.80
2024-03-16T06:59:37.708Z,1.17
2024-03-16T07:04:41.812Z,1.10
2024-03-16T07:09:45.943Z,0.70
2024-03-16T07:14:49.988Z,0.43
2024-03-16T07:19:54.075Z,0.53
2024-03-16T07:25:00.773Z,0.50
2024-03-16T07:30:06.013Z,0.60
2024-03-16T07:35:10.925Z,0.40
2024-03-16T07:40:15.877Z,0.67
2024-03-16T07:45:23.542Z,0.60
2024-03-16T07:50:32.019Z,0.60
2024-03-16T07:55:41.658Z,0.80
2024-03-16T08:00:48.392Z,0.43
2024-03-16T08:05:54.640Z,0.50
2024-03-16T08:21:42.819Z,0.40
2024-03-16T08:26:59.623Z,0.50
2024-03-16T08:32:20.892Z,0.70
2024-03-16T08:37:46.452Z,0.40
2024-03-16T08:42:52.823Z,0.57
2024-03-16T08:47:57.752Z,0.47
2024-03-16T08:53:19.208Z,0.40
2024-03-16T08:58:26.367Z,0.40
2024-03-16T09:03:31.374Z,0.63
2024-03-16T09:09:04.701Z,0.60
2024-03-16T09:26:32.551Z,0.50
2024-03-16T09:32:58.591Z,0.53
2024-03-16T09:38:19.435Z,0.40
